Time;durP1;ratioP1;P1;durP2;ratioP2;P2;SDS_P1;SDS_P2;PMS_P1;PMS_P2;Temp;Humidity;BMP_temperature;BMP_pressure;BME280_temperature;BME280_humidity;BME280_pressure;Samples;Min_cycle;Max_cycle;Signal;HPM_P1;HPM_P2
2023/09/07 00:00:46;;;;;;;0.00;0.00;;;22.40;99.90;;;;;;4956335;28;20036;-70
2023/09/07 00:03:13;;;;;;;0.00;0.00;;;22.40;99.90;;;;;;4957725;28;20468;-70
2023/09/07 00:05:39;;;;;;;0.22;0.13;;;22.40;99.90;;;;;;4962635;28;20033;-70
2023/09/07 00:08:05;;;;;;;0.00;0.00;;;22.40;99.90;;;;;;4955213;28;20030;-70
2023/09/07 00:10:35;;;;;;;0.00;0.00;;;22.40;99.90;;;;;;4962785;28;20132;-70
2023/09/07 00:13:02;;;;;;;1.55;0.73;;;22.30;99.90;;;;;;4935897;28;20038;-70
2023/09/07 00:15:28;;;;;;;0.10;0.10;;;22.30;99.90;;;;;;4998986;28;20100;-70
2023/09/07 00:17:54;;;;;;;0.88;0.38;;;22.30;99.90;;;;;;4937846;28;20114;-70
2023/09/07 00:20:21;;;;;;;0.40;0.32;;;22.30;99.90;;;;;;4961333;28;20076;-70
2023/09/07 00:22:47;;;;;;;0.43;0.28;;;22.20;99.90;;;;;;4967360;28;20373;-70
2023/09/07 00:25:13;;;;;;;0.38;0.30;;;22.20;99.90;;;;;;4964478;28;20132;-70
2023/09/07 00:27:39;;;;;;;0.00;0.00;;;22.20;99.90;;;;;;4931516;28;20519;-70
2023/09/07 00:30:05;;;;;;;0.30;0.10;;;22.10;99.90;;;;;;4971602;28;20052;-69
2023/09/07 00:32:34;;;;;;;2.20;0.95;;;22.10;99.90;;;;;;4932781;28;20059;-70
2023/09/07 00:34:59;;;;;;;1.80;0.77;;;22.10;99.90;;;;;;4991188;28;20057;-70
2023/09/07 00:37:25;;;;;;;0.00;0.00;;;22.00;99.90;;;;;;4948550;28;20051;-70
2023/09/07 00:39:52;;;;;;;0.45;0.45;;;22.00;99.90;;;;;;4951665;28;20048;-70
2023/09/07 00:42:18;;;;;;;0.00;0.00;;;21.90;99.90;;;;;;4971160;28;20494;-70
2023/09/07 00:44:43;;;;;;;0.10;0.10;;;22.00;99.90;;;;;;4948127;28;20072;-70
2023/09/07 00:47:09;;;;;;;0.00;0.00;;;21.90;99.90;;;;;;4966754;28;20040;-70
2023/09/07 00:49:35;;;;;;;0.10;0.10;;;21.90;99.90;;;;;;4971262;28;20120;-70
2023/09/07 00:52:01;;;;;;;0.00;0.00;;;21.90;99.90;;;;;;4970088;28;20576;-70
2023/09/07 00:54:28;;;;;;;0.00;0.00;;;21.90;99.90;;;;;;4930366;28;20050;-70
2023/09/07 00:56:54;;;;;;;0.32;0.30;;;21.80;99.90;;;;;;4950316;28;20519;-70
2023/09/07 00:59:20;;;;;;;0.20;0.20;;;21.80;99.90;;;;;;4965390;28;20045;-70
2023/09/07 01:01:46;;;;;;;0.10;0.10;;;21.80;99.90;;;;;;4960906;28;20030;-70
2023/09/07 01:04:11;;;;;;;0.68;0.30;;;21.80;99.90;;;;;;4956768;28;20037;-70
2023/09/07 01:06:43;;;;;;;0.00;0.00;;;21.80;99.90;;;;;;4965480;28;20385;-70
2023/09/07 01:09:17;;;;;;;0.28;0.28;;;21.70;99.90;;;;;;4970816;28;20073;-70
2023/09/07 01:11:43;;;;;;;0.20;0.20;;;21.70;99.90;;;;;;4948696;28;20066;-70
2023/09/07 01:14:10;;;;;;;0.47;0.30;;;21.70;99.90;;;;;;4950010;28;20053;-70
2023/09/07 01:16:38;;;;;;;0.00;0.00;;;21.70;99.90;;;;;;4930011;28;20048;-70
2023/09/07 01:19:06;;;;;;;1.05;0.80;;;21.70;99.90;;;;;;4971782;28;20489;-70
2023/09/07 01:21:35;;;;;;;0.00;0.00;;;21.60;99.90;;;;;;4967829;28;20057;-70
2023/09/07 01:24:06;;;;;;;0.40;0.40;;;21.50;99.90;;;;;;4911840;28;20091;-69
2023/09/07 01:26:32;;;;;;;0.00;0.00;;;21.60;99.90;;;;;;4941085;28;20084;-70
2023/09/07 01:28:57;;;;;;;0.22;0.22;;;21.60;99.90;;;;;;4962737;28;20081;-70
2023/09/07 01:31:23;;;;;;;0.28;0.28;;;21.50;99.90;;;;;;4969817;28;20045;-70
2023/09/07 01:33:48;;;;;;;0.00;0.00;;;21.50;99.90;;;;;;4952009;28;20060;-70
2023/09/07 01:36:14;;;;;;;0.63;0.52;;;21.40;99.90;;;;;;4960086;28;20046;-70
2023/09/07 01:38:40;;;;;;;0.10;0.10;;;21.40;99.90;;;;;;4969691;28;20052;-70
2023/09/07 01:41:05;;;;;;;0.38;0.20;;;21.40;99.90;;;;;;4912452;28;20058;-70
2023/09/07 01:43:31;;;;;;;0.10;0.10;;;21.40;99.90;;;;;;4949537;28;20048;-70
2023/09/07 01:45:56;;;;;;;0.10;0.10;;;21.40;99.90;;;;;;4938275;28;20044;-70
2023/09/07 01:48:22;;;;;;;0.15;0.15;;;21.40;99.90;;;;;;4973979;28;20484;-69
2023/09/07 01:50:53;;;;;;;0.00;0.00;;;21.30;99.90;;;;;;4935205;28;20037;-70
2023/09/07 01:53:19;;;;;;;0.00;0.00;;;21.30;99.90;;;;;;4954128;28;20064;-70
2023/09/07 01:55:45;;;;;;;0.00;0.00;;;21.20;99.90;;;;;;4967099;28;20048;-70
2023/09/07 01:58:10;;;;;;;0.13;0.13;;;21.20;99.90;;;;;;4954193;28;20041;-70
2023/09/07 02:00:38;;;;;;;0.00;0.00;;;21.20;99.90;;;;;;4981616;28;20507;-69
2023/09/07 02:03:04;;;;;;;1.00;0.73;;;21.20;99.90;;;;;;4955218;28;20044;-70
2023/09/07 02:05:30;;;;;;;9.30;1.75;;;21.10;99.90;;;;;;4962243;28;20099;-69
2023/09/07 02:07:56;;;;;;;0.00;0.00;;;21.10;99.90;;;;;;4962098;28;20447;-70
2023/09/07 02:10:21;;;;;;;0.20;0.20;;;21.10;99.90;;;;;;4964055;28;20107;-70
2023/09/07 02:12:47;;;;;;;0.98;0.28;;;21.10;99.90;;;;;;4904762;28;20076;-70
2023/09/07 02:15:12;;;;;;;0.60;0.22;;;21.10;99.90;;;;;;4952226;28;20138;-69
2023/09/07 02:17:38;;;;;;;0.17;0.17;;;21.00;99.90;;;;;;4937698;28;20135;-70
2023/09/07 02:20:10;;;;;;;0.08;0.05;;;21.00;99.90;;;;;;4969582;28;20050;-70
2023/09/07 02:22:36;;;;;;;0.20;0.20;;;21.00;99.90;;;;;;4955212;28;20064;-70
2023/09/07 02:25:03;;;;;;;0.30;0.30;;;21.00;99.90;;;;;;4975201;28;20488;-70
2023/09/07 02:27:28;;;;;;;0.10;0.10;;;21.00;99.90;;;;;;4954146;28;20114;-70
2023/09/07 02:29:54;;;;;;;0.17;0.13;;;20.90;99.90;;;;;;4949378;28;20081;-70
2023/09/07 02:32:20;;;;;;;0.00;0.00;;;20.90;99.90;;;;;;4960531;28;20041;-70
2023/09/07 02:34:45;;;;;;;0.13;0.13;;;20.90;99.90;;;;;;4967258;28;20053;-70
2023/09/07 02:37:11;;;;;;;0.00;0.00;;;20.90;99.90;;;;;;4919154;28;20092;-69
2023/09/07 02:39:36;;;;;;;1.00;0.98;;;20.90;99.90;;;;;;4952668;28;20061;-70
2023/09/07 02:42:02;;;;;;;0.47;0.25;;;20.90;99.90;;;;;;4961461;28;20053;-70
2023/09/07 02:44:28;;;;;;;0.32;0.32;;;20.90;99.90;;;;;;4940473;28;20030;-70
2023/09/07 02:46:54;;;;;;;0.10;0.10;;;20.90;99.90;;;;;;4968175;28;20056;-70
2023/09/07 02:49:19;;;;;;;7.60;0.82;;;20.90;99.90;;;;;;4955319;28;20122;-69
2023/09/07 02:51:45;;;;;;;0.00;0.00;;;20.80;99.90;;;;;;4916941;28;20045;-69
2023/09/07 02:54:11;;;;;;;2.78;0.28;;;20.80;99.90;;;;;;4964469;28;20116;-70
2023/09/07 02:56:36;;;;;;;0.20;0.20;;;20.90;99.90;;;;;;4960852;28;20532;-69
2023/09/07 02:59:02;;;;;;;3.60;1.55;;;20.80;99.90;;;;;;4971663;28;20164;-70
2023/09/07 03:01:28;;;;;;;0.03;0.03;;;20.80;99.90;;;;;;4948281;28;20116;-70
2023/09/07 03:03:54;;;;;;;0.13;0.10;;;20.70;99.90;;;;;;4953430;28;20087;-70
2023/09/07 03:06:20;;;;;;;0.55;0.30;;;20.70;99.90;;;;;;4956612;28;20047;-70
2023/09/07 03:08:45;;;;;;;0.60;0.60;;;20.70;99.90;;;;;;4963880;28;20034;-69
2023/09/07 03:11:11;;;;;;;0.20;0.20;;;20.60;99.90;;;;;;4942377;28;20051;-70
2023/09/07 03:13:37;;;;;;;0.10;0.10;;;20.60;99.90;;;;;;4945981;28;20085;-70
2023/09/07 03:16:03;;;;;;;0.30;0.30;;;20.60;99.90;;;;;;4939181;28;20057;-69
2023/09/07 03:18:30;;;;;;;2.53;1.40;;;20.60;99.90;;;;;;4962587;28;20512;-70
2023/09/07 03:20:58;;;;;;;0.10;0.10;;;20.50;99.90;;;;;;4952716;28;20135;-70
2023/09/07 03:23:23;;;;;;;0.38;0.38;;;20.50;99.90;;;;;;4917220;28;20396;-70
2023/09/07 03:25:49;;;;;;;0.00;0.00;;;20.40;99.90;;;;;;4957814;28;20048;-70
2023/09/07 03:28:15;;;;;;;0.80;0.70;;;20.40;99.90;;;;;;4946064;28;20060;-70
2023/09/07 03:30:40;;;;;;;0.20;0.20;;;20.40;99.90;;;;;;4972527;28;20556;-70
2023/09/07 03:33:06;;;;;;;0.10;0.10;;;20.50;99.90;;;;;;4957634;28;20040;-70
2023/09/07 03:35:32;;;;;;;0.52;0.45;;;20.40;99.90;;;;;;4957180;28;20052;-69
2023/09/07 03:37:58;;;;;;;0.00;0.00;;;20.40;99.90;;;;;;4946254;28;20049;-70
2023/09/07 03:40:23;;;;;;;0.00;0.00;;;20.40;99.90;;;;;;4971740;28;20538;-70
2023/09/07 03:42:49;;;;;;;0.10;0.10;;;20.40;99.90;;;;;;4940551;28;20053;-69
2023/09/07 03:45:15;;;;;;;0.17;0.17;;;20.30;99.90;;;;;;4987997;28;20055;-70
2023/09/07 03:47:41;;;;;;;1.02;0.93;;;20.20;99.90;;;;;;4956766;28;20040;-69
2023/09/07 03:50:07;;;;;;;6.45;0.75;;;20.30;99.90;;;;;;4954871;28;20163;-69
2023/09/07 03:52:33;;;;;;;0.10;0.10;;;20.30;99.90;;;;;;4955485;28;20036;-69
2023/09/07 03:55:00;;;;;;;0.38;0.20;;;20.20;99.90;;;;;;4955929;28;20557;-69
2023/09/07 03:57:26;;;;;;;0.10;0.10;;;20.20;99.90;;;;;;4903396;28;20042;-70
2023/09/07 03:59:52;;;;;;;0.28;0.28;;;20.20;99.90;;;;;;4952144;28;20397;-70
2023/09/07 04:02:18;;;;;;;0.40;0.25;;;20.20;99.90;;;;;;4964855;28;20044;-70
2023/09/07 04:04:51;;;;;;;0.20;0.20;;;20.20;99.90;;;;;;4957218;28;20464;-69
2023/09/07 04:07:16;;;;;;;0.30;0.30;;;20.10;99.90;;;;;;4941659;28;20048;-70
2023/09/07 04:09:43;;;;;;;0.13;0.13;;;20.10;99.90;;;;;;4946872;28;20047;-70
2023/09/07 04:12:09;;;;;;;0.47;0.47;;;20.10;99.90;;;;;;4981278;28;20046;-69
2023/09/07 04:14:35;;;;;;;0.80;0.32;;;20.10;99.90;;;;;;4966732;28;20124;-70
2023/09/07 04:17:00;;;;;;;0.17;0.17;;;20.00;99.90;;;;;;4957425;28;20042;-69
2023/09/07 04:19:26;;;;;;;0.47;0.45;;;20.00;99.90;;;;;;4955298;28;20044;-69
2023/09/07 04:21:52;;;;;;;0.13;0.13;;;20.00;99.90;;;;;;4954730;28;20046;-70
2023/09/07 04:24:17;;;;;;;0.20;0.20;;;20.00;99.90;;;;;;4994791;28;20042;-70
2023/09/07 04:26:43;;;;;;;0.30;0.30;;;20.00;99.90;;;;;;4962267;28;20054;-69
2023/09/07 04:29:08;;;;;;;0.13;0.13;;;20.00;99.90;;;;;;4956806;28;20059;-69
2023/09/07 04:31:35;;;;;;;0.47;0.43;;;19.90;99.90;;;;;;4920866;28;20112;-69
2023/09/07 04:34:00;;;;;;;0.10;0.10;;;19.90;99.90;;;;;;4961377;28;20122;-69
2023/09/07 04:36:26;;;;;;;0.00;0.00;;;19.80;99.90;;;;;;4953585;28;20623;-69
2023/09/07 04:38:51;;;;;;;0.10;0.10;;;19.80;99.90;;;;;;4942206;28;20139;-69
2023/09/07 04:41:17;;;;;;;0.45;0.30;;;19.90;99.90;;;;;;4971485;28;20051;-69
2023/09/07 04:43:43;;;;;;;0.10;0.10;;;19.80;99.90;;;;;;4933517;28;20044;-69
2023/09/07 04:46:10;;;;;;;0.03;0.03;;;19.80;99.90;;;;;;4996429;28;20051;-69
2023/09/07 04:48:36;;;;;;;0.73;0.73;;;19.80;99.90;;;;;;4955228;28;20055;-69
2023/09/07 04:51:03;;;;;;;0.95;0.73;;;19.80;99.90;;;;;;4957592;28;20052;-69
2023/09/07 04:53:30;;;;;;;0.15;0.15;;;19.70;99.90;;;;;;4963638;28;20268;-69
2023/09/07 04:55:56;;;;;;;0.20;0.20;;;19.70;99.90;;;;;;4968654;28;20042;-69
2023/09/07 04:58:22;;;;;;;0.20;0.13;;;19.70;99.90;;;;;;4956231;28;20048;-69
2023/09/07 05:00:48;;;;;;;0.70;0.68;;;19.60;99.90;;;;;;4931574;28;20116;-69
2023/09/07 05:03:13;;;;;;;0.40;0.40;;;19.60;99.90;;;;;;4978138;28;20122;-70
2023/09/07 05:05:41;;;;;;;0.40;0.40;;;19.60;99.90;;;;;;4955986;28;20044;-70
2023/09/07 05:08:06;;;;;;;1.20;0.40;;;19.60;99.90;;;;;;4953547;28;20046;-69
2023/09/07 05:10:36;;;;;;;0.38;0.38;;;19.60;99.90;;;;;;4937324;28;20137;-70
2023/09/07 05:13:02;;;;;;;0.00;0.00;;;19.60;99.90;;;;;;4950418;28;20127;-69
2023/09/07 05:15:27;;;;;;;2.40;0.10;;;19.60;99.90;;;;;;4910402;28;20040;-69
2023/09/07 05:17:54;;;;;;;4.95;1.27;;;19.60;99.90;;;;;;4947230;28;20052;-69
2023/09/07 05:20:19;;;;;;;0.52;0.52;;;19.60;99.90;;;;;;4905390;28;20381;-69
2023/09/07 05:22:45;;;;;;;0.38;0.38;;;19.50;99.90;;;;;;4950725;28;20055;-69
2023/09/07 05:25:11;;;;;;;0.47;0.47;;;19.50;99.90;;;;;;4946338;28;20040;-70
2023/09/07 05:27:38;;;;;;;0.98;0.95;;;19.50;99.90;;;;;;4958718;28;20052;-70
2023/09/07 05:30:04;;;;;;;0.20;0.20;;;19.50;99.90;;;;;;4970588;28;20038;-69
2023/09/07 05:32:30;;;;;;;0.00;0.00;;;19.50;99.90;;;;;;4951762;28;20072;-69
2023/09/07 05:34:56;;;;;;;0.28;0.25;;;19.50;99.90;;;;;;4967104;28;20052;-70
2023/09/07 05:37:21;;;;;;;0.00;0.00;;;19.50;99.90;;;;;;4969729;28;20121;-69
2023/09/07 05:39:48;;;;;;;0.20;0.20;;;19.50;99.90;;;;;;4921462;28;20080;-69
2023/09/07 05:42:14;;;;;;;0.28;0.28;;;19.50;99.90;;;;;;4962463;28;20481;-70
2023/09/07 05:44:40;;;;;;;0.20;0.20;;;19.60;99.90;;;;;;4970003;28;20046;-69
2023/09/07 05:47:05;;;;;;;0.57;0.57;;;19.60;99.90;;;;;;4958547;28;20116;-69
2023/09/07 05:49:31;;;;;;;0.80;0.52;;;19.60;99.90;;;;;;4942867;28;20049;-69
2023/09/07 05:51:57;;;;;;;1.00;0.63;;;19.60;99.90;;;;;;4980970;28;20042;-69
2023/09/07 05:54:22;;;;;;;1.48;0.70;;;19.60;99.90;;;;;;4954354;28;20040;-69
2023/09/07 05:56:48;;;;;;;0.20;0.20;;;19.60;99.90;;;;;;4954657;28;20040;-70
2023/09/07 05:59:13;;;;;;;0.85;0.45;;;19.60;99.90;;;;;;4949053;28;20060;-69
2023/09/07 06:01:40;;;;;;;0.17;0.17;;;19.70;99.90;;;;;;4979458;28;20050;-69
2023/09/07 06:04:06;;;;;;;0.22;0.22;;;19.70;99.90;;;;;;4933850;28;20139;-69
2023/09/07 06:06:32;;;;;;;0.00;0.00;;;19.70;99.90;;;;;;4966459;28;20071;-70
2023/09/07 06:09:00;;;;;;;0.52;0.30;;;19.70;99.90;;;;;;4954950;28;20496;-69
2023/09/07 06:11:26;;;;;;;0.82;0.63;;;19.70;99.90;;;;;;4963884;28;20071;-69
2023/09/07 06:13:51;;;;;;;0.00;0.00;;;19.70;99.90;;;;;;4959070;28;20037;-69
2023/09/07 06:16:17;;;;;;;0.20;0.20;;;19.70;99.90;;;;;;4966476;28;20077;-69
2023/09/07 06:18:43;;;;;;;0.13;0.13;;;19.70;99.90;;;;;;4952186;28;20044;-70
2023/09/07 06:21:09;;;;;;;0.45;0.45;;;19.80;99.90;;;;;;4969636;28;20092;-69
2023/09/07 06:23:35;;;;;;;0.60;0.55;;;19.80;99.90;;;;;;4918001;28;20076;-69
2023/09/07 06:26:00;;;;;;;0.10;0.10;;;19.80;99.90;;;;;;4954053;28;20066;-69
2023/09/07 06:28:27;;;;;;;0.00;0.00;;;19.80;99.90;;;;;;4954415;28;20102;-69
2023/09/07 06:30:52;;;;;;;0.35;0.35;;;19.90;99.90;;;;;;4961659;28;20034;-69
2023/09/07 06:33:18;;;;;;;0.00;0.00;;;19.90;99.90;;;;;;4923607;28;20055;-69
2023/09/07 06:35:44;;;;;;;0.10;0.10;;;20.00;99.90;;;;;;4958131;28;20106;-69
2023/09/07 06:38:09;;;;;;;0.00;0.00;;;20.10;99.90;;;;;;4968942;28;20053;-69
2023/09/07 06:40:35;;;;;;;0.15;0.15;;;20.10;99.90;;;;;;4938855;28;20426;-69
2023/09/07 06:43:05;;;;;;;0.00;0.00;;;20.10;99.90;;;;;;4964292;28;20041;-69
2023/09/07 06:45:34;;;;;;;0.05;0.05;;;20.10;99.90;;;;;;4930826;28;20175;-69
2023/09/07 06:48:00;;;;;;;0.00;0.00;;;20.20;99.90;;;;;;4964761;28;20114;-69
2023/09/07 06:50:26;;;;;;;0.10;0.10;;;20.20;99.90;;;;;;4954330;28;20076;-69
2023/09/07 06:52:51;;;;;;;0.25;0.25;;;20.30;99.90;;;;;;4953973;28;20048;-69
2023/09/07 06:55:17;;;;;;;0.20;0.20;;;20.30;99.90;;;;;;4962345;28;20030;-69
2023/09/07 06:57:42;;;;;;;0.00;0.00;;;20.30;99.90;;;;;;4978519;28;20076;-69
2023/09/07 07:00:08;;;;;;;0.43;0.43;;;20.40;99.90;;;;;;4928203;28;20053;-69
2023/09/07 07:02:34;;;;;;;0.30;0.30;;;20.40;99.90;;;;;;4968337;28;20468;-69
2023/09/07 07:05:01;;;;;;;0.00;0.00;;;20.50;99.90;;;;;;4935809;28;20049;-69
2023/09/07 07:07:29;;;;;;;0.10;0.10;;;20.50;99.90;;;;;;4966580;28;20052;-69
2023/09/07 07:09:54;;;;;;;0.00;0.00;;;20.60;99.90;;;;;;4968786;28;20034;-69
2023/09/07 07:12:20;;;;;;;0.00;0.00;;;20.60;99.90;;;;;;4934162;28;20107;-69
2023/09/07 07:14:46;;;;;;;0.47;0.40;;;20.70;99.90;;;;;;4975258;28;20623;-69
2023/09/07 07:17:12;;;;;;;0.00;0.00;;;20.70;99.90;;;;;;4928261;28;20056;-69
2023/09/07 07:19:37;;;;;;;0.50;0.25;;;20.80;99.90;;;;;;4974211;28;20077;-69
2023/09/07 07:22:03;;;;;;;0.10;0.10;;;20.90;99.90;;;;;;4957210;28;20040;-69
2023/09/07 07:24:29;;;;;;;0.30;0.30;;;20.90;99.90;;;;;;4904539;28;20054;-69
2023/09/07 07:26:55;;;;;;;0.17;0.17;;;21.00;99.90;;;;;;4950608;28;20044;-69
2023/09/07 07:29:20;;;;;;;3.58;0.55;;;21.10;99.90;;;;;;4944106;28;20555;-69
2023/09/07 07:31:46;;;;;;;0.15;0.15;;;21.10;99.90;;;;;;4966608;28;20047;-70
2023/09/07 07:34:12;;;;;;;0.15;0.15;;;21.20;99.90;;;;;;4961936;28;20112;-69
2023/09/07 07:36:38;;;;;;;0.28;0.28;;;21.20;99.90;;;;;;4949430;28;20057;-69
2023/09/07 07:39:07;;;;;;;0.00;0.00;;;21.30;99.90;;;;;;4964569;28;20505;-69
2023/09/07 07:41:32;;;;;;;0.00;0.00;;;21.30;99.90;;;;;;4977160;28;20412;-69
2023/09/07 07:43:58;;;;;;;0.10;0.10;;;21.40;99.90;;;;;;4966980;28;20063;-69
2023/09/07 07:46:24;;;;;;;0.00;0.00;;;21.50;99.90;;;;;;4945784;28;20436;-69
2023/09/07 07:48:49;;;;;;;3.50;1.27;;;21.50;99.90;;;;;;4954239;28;20048;-69
2023/09/07 07:51:15;;;;;;;0.28;0.17;;;21.60;99.90;;;;;;4960835;28;21100;-70
2023/09/07 07:53:41;;;;;;;0.30;0.30;;;21.70;99.90;;;;;;4901505;28;20126;-69
2023/09/07 07:56:15;;;;;;;0.68;0.20;;;21.70;99.90;;;;;;4953690;28;20118;-69
2023/09/07 07:58:40;;;;;;;0.10;0.10;;;21.80;99.90;;;;;;4965152;28;20588;-69
2023/09/07 08:01:17;;;;;;;0.00;0.00;;;21.80;99.90;;;;;;4941888;28;20053;-70
2023/09/07 08:03:43;;;;;;;0.00;0.00;;;21.80;99.90;;;;;;4961899;28;20057;-69
2023/09/07 08:06:09;;;;;;;0.25;0.25;;;21.90;99.90;;;;;;4956286;28;20160;-69
2023/09/07 08:08:34;;;;;;;0.10;0.10;;;22.00;99.90;;;;;;4963644;28;20145;-69
2023/09/07 08:11:05;;;;;;;3.83;0.40;;;22.00;99.90;;;;;;4971938;28;20076;-69
2023/09/07 08:13:32;;;;;;;0.00;0.00;;;22.10;99.90;;;;;;4957132;28;20096;-69
2023/09/07 08:15:58;;;;;;;0.32;0.30;;;22.20;99.90;;;;;;4908786;28;20045;-69
2023/09/07 08:18:24;;;;;;;0.40;0.40;;;22.20;99.90;;;;;;4957466;28;20443;-69
2023/09/07 08:20:49;;;;;;;0.10;0.10;;;22.20;99.90;;;;;;4950545;28;20059;-69
2023/09/07 08:23:15;;;;;;;0.00;0.00;;;22.30;99.90;;;;;;4909629;28;20147;-69
2023/09/07 08:25:44;;;;;;;0.00;0.00;;;22.40;99.90;;;;;;4955829;28;20068;-69
2023/09/07 08:28:10;;;;;;;0.00;0.00;;;22.50;99.90;;;;;;4956735;28;20059;-70
2023/09/07 08:30:37;;;;;;;0.10;0.10;;;22.50;99.90;;;;;;4951987;28;20392;-70
2023/09/07 08:33:05;;;;;;;0.00;0.00;;;22.60;99.90;;;;;;4970491;28;20056;-69
2023/09/07 08:35:35;;;;;;;0.10;0.10;;;22.60;99.90;;;;;;4971923;28;20133;-69
2023/09/07 08:38:03;;;;;;;0.10;0.10;;;22.70;99.90;;;;;;4930395;28;20128;-69
2023/09/07 08:40:29;;;;;;;0.00;0.00;;;22.80;99.90;;;;;;4950823;28;20146;-69
2023/09/07 08:42:55;;;;;;;0.00;0.00;;;22.90;99.90;;;;;;4952177;28;20063;-69
2023/09/07 08:45:25;;;;;;;0.00;0.00;;;23.00;99.90;;;;;;4948538;28;20040;-69
2023/09/07 08:47:52;;;;;;;0.10;0.10;;;23.00;99.90;;;;;;4957301;28;20546;-70
2023/09/07 08:50:19;;;;;;;0.93;0.93;;;23.10;99.90;;;;;;4970311;28;20057;-69
2023/09/07 08:52:48;;;;;;;0.20;0.20;;;23.20;99.90;;;;;;4954499;28;22514;-69
2023/09/07 08:55:14;;;;;;;0.22;0.22;;;23.30;99.90;;;;;;4945266;28;20074;-69
2023/09/07 08:57:39;;;;;;;0.03;0.03;;;23.40;99.90;;;;;;4971262;28;20401;-69
2023/09/07 09:00:13;;;;;;;0.15;0.15;;;23.50;99.90;;;;;;4965978;28;20045;-70
2023/09/07 09:02:39;;;;;;;0.43;0.43;;;23.60;99.90;;;;;;4903830;28;20095;-70
2023/09/07 09:05:05;;;;;;;0.00;0.00;;;24.50;99.90;;;;;;4950006;28;20045;-70
2023/09/07 09:07:31;;;;;;;0.22;0.22;;;25.50;99.90;;;;;;4954460;28;20041;-70
2023/09/07 09:10:07;;;;;;;0.63;0.63;;;26.30;99.90;;;;;;4955269;28;20447;-70
2023/09/07 09:12:32;;;;;;;0.17;0.10;;;27.20;99.90;;;;;;4914507;28;20081;-71
2023/09/07 09:15:00;;;;;;;0.68;0.52;;;27.60;99.90;;;;;;4940426;28;20094;-71
2023/09/07 09:17:26;;;;;;;0.40;0.40;;;28.20;99.90;;;;;;4961174;28;20496;-70
2023/09/07 09:19:51;;;;;;;0.08;0.08;;;28.40;99.90;;;;;;4955752;28;20056;-71
2023/09/07 09:22:17;;;;;;;0.93;0.85;;;28.80;99.90;;;;;;4926117;28;20060;-71
2023/09/07 09:24:42;;;;;;;4.15;0.75;;;28.90;99.90;;;;;;4947886;28;20436;-71
2023/09/07 09:27:08;;;;;;;0.03;0.03;;;29.30;99.90;;;;;;4940945;28;20382;-71
2023/09/07 09:29:34;;;;;;;0.20;0.20;;;29.40;99.90;;;;;;4967048;28;20049;-70
2023/09/07 09:32:04;;;;;;;0.20;0.15;;;29.40;99.90;;;;;;4955093;28;20115;-71
2023/09/07 09:34:37;;;;;;;0.08;0.08;;;29.70;99.90;;;;;;4937950;28;20100;-71
2023/09/07 09:37:06;;;;;;;0.10;0.10;;;29.80;99.90;;;;;;4947261;28;20147;-71
2023/09/07 09:39:32;;;;;;;0.00;0.00;;;30.10;99.90;;;;;;4945699;28;20109;-71
2023/09/07 09:41:59;;;;;;;0.85;0.52;;;30.30;99.90;;;;;;4967144;28;20079;-72
2023/09/07 09:44:25;;;;;;;0.50;0.28;;;30.30;99.90;;;;;;4955327;28;20073;-71
2023/09/07 09:46:54;;;;;;;0.00;0.00;;;30.30;99.90;;;;;;4948331;28;20531;-71
2023/09/07 09:49:21;;;;;;;2.55;0.98;;;30.20;99.90;;;;;;4970078;28;20042;-71
2023/09/07 09:51:49;;;;;;;0.25;0.20;;;30.30;99.90;;;;;;4912211;28;20043;-71
2023/09/07 09:54:17;;;;;;;0.20;0.20;;;30.10;99.90;;;;;;4956463;28;20048;-71
2023/09/07 09:56:43;;;;;;;0.03;0.03;;;30.20;99.90;;;;;;4954099;28;20059;-71
2023/09/07 09:59:08;;;;;;;0.00;0.00;;;30.20;99.90;;;;;;4952647;28;20479;-71
2023/09/07 10:01:44;;;;;;;0.30;0.30;;;30.40;99.90;;;;;;4964041;28;20041;-71
2023/09/07 10:04:11;;;;;;;0.22;0.22;;;30.30;99.90;;;;;;4951970;28;20060;-71
2023/09/07 10:06:38;;;;;;;0.25;0.17;;;30.40;99.90;;;;;;4935827;28;20091;-71
2023/09/07 10:09:10;;;;;;;0.30;0.20;;;30.70;99.90;;;;;;4968827;28;20077;-71
2023/09/07 10:11:37;;;;;;;0.17;0.17;;;30.50;99.90;;;;;;4920693;28;20095;-71
2023/09/07 10:14:05;;;;;;;7.20;0.45;;;30.40;99.90;;;;;;4974683;28;20040;-71
2023/09/07 10:16:47;;;;;;;0.38;0.25;;;30.00;99.90;;;;;;4956135;28;20044;-71
2023/09/07 10:19:19;;;;;;;0.20;0.20;;;30.00;99.90;;;;;;4946811;28;20480;-71
2023/09/07 10:21:45;;;;;;;0.00;0.00;;;29.80;99.90;;;;;;4921875;28;20547;-71
2023/09/07 10:24:11;;;;;;;0.10;0.05;;;29.60;99.90;;;;;;4951707;28;20076;-71
2023/09/07 10:26:37;;;;;;;0.00;0.00;;;29.70;99.90;;;;;;4970553;28;20465;-71
2023/09/07 10:29:05;;;;;;;1.30;0.40;;;29.60;99.90;;;;;;4954148;28;20040;-71
2023/09/07 10:31:31;;;;;;;0.00;0.00;;;29.60;99.90;;;;;;4955281;28;20044;-71
2023/09/07 10:34:07;;;;;;;0.15;0.00;;;29.40;99.90;;;;;;4960896;28;20049;-71
2023/09/07 10:36:34;;;;;;;0.60;0.47;;;29.50;99.90;;;;;;4969283;28;20087;-71
2023/09/07 10:39:00;;;;;;;0.25;0.25;;;29.30;99.90;;;;;;4944808;28;20052;-70
2023/09/07 10:41:26;;;;;;;1.38;0.35;;;29.30;99.90;;;;;;4949606;28;20052;-71
2023/09/07 10:43:54;;;;;;;0.10;0.10;;;29.40;99.90;;;;;;4916231;28;20044;-71
2023/09/07 10:46:21;;;;;;;0.00;0.00;;;29.30;99.90;;;;;;4969017;28;20038;-71
2023/09/07 10:48:50;;;;;;;1.23;0.20;;;29.50;99.90;;;;;;4968059;28;20054;-69
2023/09/07 10:51:16;;;;;;;0.13;0.10;;;29.50;99.90;;;;;;4931079;28;20052;-71
2023/09/07 10:53:42;;;;;;;0.55;0.55;;;29.60;99.90;;;;;;4952858;28;20455;-71
2023/09/07 10:56:08;;;;;;;0.65;0.45;;;29.40;99.90;;;;;;4963011;28;20037;-70
2023/09/07 10:58:38;;;;;;;0.10;0.10;;;29.70;99.90;;;;;;4932324;28;20048;-71
2023/09/07 11:01:05;;;;;;;0.03;0.03;;;29.70;99.90;;;;;;4957987;28;20040;-71
2023/09/07 11:03:30;;;;;;;0.00;0.00;;;30.00;99.90;;;;;;4973549;28;20049;-71
2023/09/07 11:06:03;;;;;;;0.05;0.05;;;30.10;99.90;;;;;;4940359;28;20041;-70
2023/09/07 11:08:30;;;;;;;0.00;0.00;;;30.10;99.90;;;;;;4947514;28;20826;-70
2023/09/07 11:10:56;;;;;;;1.23;1.13;;;30.10;99.90;;;;;;4912789;28;20366;-70
2023/09/07 11:13:24;;;;;;;0.55;0.55;;;30.30;99.90;;;;;;4963749;28;20055;-70
2023/09/07 11:15:49;;;;;;;0.35;0.35;;;30.40;99.90;;;;;;4953749;28;20492;-70
2023/09/07 11:18:21;;;;;;;0.10;0.10;;;30.50;99.90;;;;;;4960721;28;20085;-70
2023/09/07 11:20:47;;;;;;;0.20;0.20;;;30.70;99.90;;;;;;4949456;28;20124;-70
2023/09/07 11:23:12;;;;;;;0.00;0.00;;;30.70;99.90;;;;;;4953068;28;20081;-70
2023/09/07 11:25:39;;;;;;;0.10;0.10;;;30.80;99.90;;;;;;4960914;28;20172;-70
2023/09/07 11:28:06;;;;;;;0.00;0.00;;;30.90;99.90;;;;;;4944570;28;20127;-70
2023/09/07 11:30:34;;;;;;;0.00;0.00;;;31.00;99.90;;;;;;4949955;28;20092;-70
2023/09/07 11:33:05;;;;;;;0.00;0.00;;;31.20;99.90;;;;;;4972429;28;20403;-70
2023/09/07 11:35:32;;;;;;;0.28;0.28;;;31.20;99.90;;;;;;4950236;28;20055;-70
2023/09/07 11:38:04;;;;;;;1.05;0.57;;;31.30;99.90;;;;;;4975436;28;20051;-70
2023/09/07 11:40:30;;;;;;;0.00;0.00;;;31.30;99.90;;;;;;4953862;28;20401;-70
2023/09/07 11:42:56;;;;;;;0.15;0.15;;;31.50;99.90;;;;;;4958876;28;20122;-70
2023/09/07 11:45:22;;;;;;;0.32;0.32;;;31.60;99.90;;;;;;4973330;28;20046;-70
2023/09/07 11:47:47;;;;;;;0.00;0.00;;;31.60;99.90;;;;;;4972413;28;20073;-70
2023/09/07 11:50:13;;;;;;;4.15;1.05;;;31.70;99.90;;;;;;4911013;28;20138;-70
2023/09/07 11:52:39;;;;;;;0.38;0.38;;;31.80;99.90;;;;;;4939500;28;20049;-70
2023/09/07 11:55:04;;;;;;;0.63;0.55;;;31.90;99.90;;;;;;4965581;28;20521;-70
2023/09/07 11:57:30;;;;;;;0.10;0.10;;;32.10;99.90;;;;;;4954636;28;20044;-70
2023/09/07 11:59:56;;;;;;;0.00;0.00;;;32.20;99.90;;;;;;4913967;28;20132;-70
2023/09/07 12:02:22;;;;;;;0.00;0.00;;;32.30;99.90;;;;;;4969971;28;20048;-70
2023/09/07 12:04:48;;;;;;;0.00;0.00;;;32.50;99.90;;;;;;4970682;28;20084;-70
2023/09/07 12:07:17;;;;;;;0.10;0.10;;;32.40;99.90;;;;;;4963103;28;20371;-70
2023/09/07 12:09:42;;;;;;;1.10;0.50;;;32.50;99.90;;;;;;4972770;28;20041;-70
2023/09/07 12:12:10;;;;;;;0.77;0.20;;;32.60;99.90;;;;;;4972011;28;20038;-70
2023/09/07 12:14:36;;;;;;;0.00;0.00;;;32.80;99.90;;;;;;4910181;28;20048;-70
2023/09/07 12:17:02;;;;;;;0.88;0.47;;;32.80;99.90;;;;;;4950822;28;20048;-70
2023/09/07 12:19:28;;;;;;;0.10;0.10;;;32.80;99.90;;;;;;4962612;28;20063;-70
2023/09/07 12:21:54;;;;;;;0.00;0.00;;;33.10;99.90;;;;;;4962897;28;20036;-70
2023/09/07 12:24:19;;;;;;;0.05;0.03;;;33.30;99.20;;;;;;4921589;28;20063;-70
2023/09/07 12:26:45;;;;;;;0.00;0.00;;;33.20;99.80;;;;;;4955771;28;20056;-71
2023/09/07 12:29:11;;;;;;;0.10;0.10;;;33.10;99.60;;;;;;4934637;28;20405;-71
2023/09/07 12:31:36;;;;;;;2.72;0.30;;;33.30;99.10;;;;;;4970587;28;20505;-71
2023/09/07 12:34:02;;;;;;;0.10;0.10;;;33.60;99.50;;;;;;4970833;28;20049;-71
2023/09/07 12:36:29;;;;;;;0.13;0.05;;;33.80;99.40;;;;;;4928451;28;20041;-70
2023/09/07 12:39:01;;;;;;;0.43;0.40;;;33.80;98.90;;;;;;4956277;28;20512;-70
2023/09/07 12:41:30;;;;;;;2.58;0.55;;;33.90;99.70;;;;;;4936233;28;20095;-70
2023/09/07 12:43:56;;;;;;;0.03;0.03;;;34.00;98.20;;;;;;4963223;28;20071;-70